sensor_id;sensor_type;location;lat;lon;timestamp;temperature;humidity
42965;DHT22;28604;51.204;22.552;2023-04-03T00:01:38;2.90;91.70
42965;DHT22;28604;51.204;22.552;2023-04-03T00:04:05;2.80;92.20
42965;DHT22;28604;51.204;22.552;2023-04-03T00:06:32;2.80;91.70
42965;DHT22;28604;51.204;22.552;2023-04-03T00:08:58;2.80;92.20
42965;DHT22;28604;51.204;22.552;2023-04-03T00:11:24;2.70;92.60
42965;DHT22;28604;51.204;22.552;2023-04-03T00:13:51;2.70;92.10
42965;DHT22;28604;51.204;22.552;2023-04-03T00:16:16;2.80;92.10
42965;DHT22;28604;51.204;22.552;2023-04-03T00:18:43;2.80;92.50
42965;DHT22;28604;51.204;22.552;2023-04-03T00:21:12;2.70;92.20
42965;DHT22;28604;51.204;22.552;2023-04-03T00:23:38;2.70;91.90
42965;DHT22;28604;51.204;22.552;2023-04-03T00:26:04;2.70;92.40
42965;DHT22;28604;51.204;22.552;2023-04-03T00:28:30;2.70;92.40
42965;DHT22;28604;51.204;22.552;2023-04-03T00:30:56;2.70;92.30
42965;DHT22;28604;51.204;22.552;2023-04-03T00:33:22;2.70;92.10
42965;DHT22;28604;51.204;22.552;2023-04-03T00:35:50;2.60;92.10
42965;DHT22;28604;51.204;22.552;2023-04-03T00:38:16;2.60;91.90
42965;DHT22;28604;51.204;22.552;2023-04-03T00:40:45;2.60;92.10
42965;DHT22;28604;51.204;22.552;2023-04-03T00:43:15;2.60;92.20
42965;DHT22;28604;51.204;22.552;2023-04-03T00:45:45;2.60;92.10
42965;DHT22;28604;51.204;22.552;2023-04-03T00:48:40;2.50;92.60
42965;DHT22;28604;51.204;22.552;2023-04-03T00:51:16;2.50;92.90
42965;DHT22;28604;51.204;22.552;2023-04-03T00:53:48;2.50;92.50
42965;DHT22;28604;51.204;22.552;2023-04-03T00:56:18;2.60;92.40
42965;DHT22;28604;51.204;22.552;2023-04-03T00:58:53;2.50;92.30
42965;DHT22;28604;51.204;22.552;2023-04-03T01:04:28;2.50;92.70
42965;DHT22;28604;51.204;22.552;2023-04-03T01:06:57;2.50;92.80
42965;DHT22;28604;51.204;22.552;2023-04-03T01:09:24;2.50;92.50
42965;DHT22;28604;51.204;22.552;2023-04-03T01:11:50;2.50;92.20
42965;DHT22;28604;51.204;22.552;2023-04-03T01:14:16;2.50;92.40
42965;DHT22;28604;51.204;22.552;2023-04-03T01:16:42;2.50;92.40
42965;DHT22;28604;51.204;22.552;2023-04-03T01:19:13;2.50;92.10
42965;DHT22;28604;51.204;22.552;2023-04-03T01:26:51;2.50;92.30
42965;DHT22;28604;51.204;22.552;2023-04-03T01:29:18;2.50;92.10
42965;DHT22;28604;51.204;22.552;2023-04-03T01:31:56;2.50;92.60
42965;DHT22;28604;51.204;22.552;2023-04-03T01:34:23;2.40;92.40
42965;DHT22;28604;51.204;22.552;2023-04-03T01:36:50;2.40;92.20
42965;DHT22;28604;51.204;22.552;2023-04-03T01:39:17;2.40;92.40
42965;DHT22;28604;51.204;22.552;2023-04-03T01:41:43;2.40;92.30
42965;DHT22;28604;51.204;22.552;2023-04-03T01:44:15;2.40;92.70
42965;DHT22;28604;51.204;22.552;2023-04-03T01:46:41;2.40;92.40
42965;DHT22;28604;51.204;22.552;2023-04-03T01:49:08;2.40;92.80
42965;DHT22;28604;51.204;22.552;2023-04-03T01:51:34;2.30;92.70
42965;DHT22;28604;51.204;22.552;2023-04-03T01:54:03;2.40;92.40
42965;DHT22;28604;51.204;22.552;2023-04-03T01:56:29;2.30;92.80
42965;DHT22;28604;51.204;22.552;2023-04-03T01:58:57;2.40;92.80
42965;DHT22;28604;51.204;22.552;2023-04-03T02:01:23;2.30;92.50
42965;DHT22;28604;51.204;22.552;2023-04-03T02:03:49;2.40;92.40
42965;DHT22;28604;51.204;22.552;2023-04-03T02:06:15;2.40;92.20
42965;DHT22;28604;51.204;22.552;2023-04-03T02:08:41;2.40;92.40
42965;DHT22;28604;51.204;22.552;2023-04-03T02:11:07;2.40;92.30
42965;DHT22;28604;51.204;22.552;2023-04-03T02:13:33;2.30;92.30
42965;DHT22;28604;51.204;22.552;2023-04-03T02:16:06;2.30;92.50
42965;DHT22;28604;51.204;22.552;2023-04-03T02:18:32;2.30;92.30
42965;DHT22;28604;51.204;22.552;2023-04-03T02:20:58;2.30;92.40
42965;DHT22;28604;51.204;22.552;2023-04-03T02:23:24;2.30;92.20
42965;DHT22;28604;51.204;22.552;2023-04-03T02:25:50;2.20;92.80
42965;DHT22;28604;51.204;22.552;2023-04-03T02:28:16;2.20;92.50
42965;DHT22;28604;51.204;22.552;2023-04-03T02:30:42;2.20;92.60
42965;DHT22;28604;51.204;22.552;2023-04-03T02:33:08;2.10;92.70
42965;DHT22;28604;51.204;22.552;2023-04-03T02:35:34;2.10;92.40
42965;DHT22;28604;51.204;22.552;2023-04-03T02:38:00;2.10;92.80
42965;DHT22;28604;51.204;22.552;2023-04-03T02:40:26;2.10;92.40
42965;DHT22;28604;51.204;22.552;2023-04-03T02:42:52;2.10;92.60
42965;DHT22;28604;51.204;22.552;2023-04-03T02:45:19;2.10;92.80
42965;DHT22;28604;51.204;22.552;2023-04-03T02:47:45;2.10;92.40
42965;DHT22;28604;51.204;22.552;2023-04-03T02:50:11;2.10;92.50
42965;DHT22;28604;51.204;22.552;2023-04-03T02:52:37;2.10;92.30
42965;DHT22;28604;51.204;22.552;2023-04-03T02:55:03;2.10;92.60
42965;DHT22;28604;51.204;22.552;2023-04-03T02:57:29;2.10;92.60
42965;DHT22;28604;51.204;22.552;2023-04-03T02:59:55;2.00;92.80
42965;DHT22;28604;51.204;22.552;2023-04-03T03:02:21;2.00;92.90
42965;DHT22;28604;51.204;22.552;2023-04-03T03:04:47;2.00;93.00
42965;DHT22;28604;51.204;22.552;2023-04-03T03:07:13;2.00;92.80
42965;DHT22;28604;51.204;22.552;2023-04-03T03:09:40;2.00;92.80
42965;DHT22;28604;51.204;22.552;2023-04-03T03:12:06;2.00;92.80
42965;DHT22;28604;51.204;22.552;2023-04-03T03:14:32;2.10;92.70
42965;DHT22;28604;51.204;22.552;2023-04-03T03:16:58;2.00;93.00
42965;DHT22;28604;51.204;22.552;2023-04-03T03:19:23;2.00;92.90
42965;DHT22;28604;51.204;22.552;2023-04-03T03:21:51;1.90;92.90
42965;DHT22;28604;51.204;22.552;2023-04-03T03:24:17;1.90;93.00
42965;DHT22;28604;51.204;22.552;2023-04-03T03:26:43;1.90;93.20
42965;DHT22;28604;51.204;22.552;2023-04-03T03:29:09;1.80;93.10
42965;DHT22;28604;51.204;22.552;2023-04-03T03:31:36;1.90;93.20
42965;DHT22;28604;51.204;22.552;2023-04-03T03:34:02;1.80;93.20
42965;DHT22;28604;51.204;22.552;2023-04-03T03:36:28;1.90;93.10
42965;DHT22;28604;51.204;22.552;2023-04-03T03:38:54;1.90;93.10
42965;DHT22;28604;51.204;22.552;2023-04-03T03:41:20;1.80;93.20
42965;DHT22;28604;51.204;22.552;2023-04-03T03:43:46;1.90;93.00
42965;DHT22;28604;51.204;22.552;2023-04-03T03:46:15;1.90;92.80
42965;DHT22;28604;51.204;22.552;2023-04-03T03:48:40;1.90;92.90
42965;DHT22;28604;51.204;22.552;2023-04-03T03:51:07;1.90;92.90
42965;DHT22;28604;51.204;22.552;2023-04-03T03:53:35;1.90;93.00
42965;DHT22;28604;51.204;22.552;2023-04-03T03:56:06;1.90;92.90
42965;DHT22;28604;51.204;22.552;2023-04-03T03:58:33;1.80;92.90
42965;DHT22;28604;51.204;22.552;2023-04-03T04:01:04;1.80;92.90
42965;DHT22;28604;51.204;22.552;2023-04-03T04:03:32;1.80;92.80
42965;DHT22;28604;51.204;22.552;2023-04-03T04:05:58;1.80;92.90
42965;DHT22;28604;51.204;22.552;2023-04-03T04:08:25;1.80;92.90
42965;DHT22;28604;51.204;22.552;2023-04-03T04:10:51;1.80;93.00
42965;DHT22;28604;51.204;22.552;2023-04-03T04:13:18;1.80;92.90
42965;DHT22;28604;51.204;22.552;2023-04-03T04:15:45;1.80;93.00
42965;DHT22;28604;51.204;22.552;2023-04-03T04:18:12;1.80;93.00
42965;DHT22;28604;51.204;22.552;2023-04-03T04:20:40;1.80;92.90
42965;DHT22;28604;51.204;22.552;2023-04-03T04:23:06;1.70;93.00
42965;DHT22;28604;51.204;22.552;2023-04-03T04:25:32;1.70;93.00
42965;DHT22;28604;51.204;22.552;2023-04-03T04:27:59;1.70;92.80
42965;DHT22;28604;51.204;22.552;2023-04-03T04:30:25;1.70;92.90
42965;DHT22;28604;51.204;22.552;2023-04-03T04:32:52;1.70;92.90
42965;DHT22;28604;51.204;22.552;2023-04-03T04:35:19;1.60;92.90
42965;DHT22;28604;51.204;22.552;2023-04-03T04:37:48;1.60;92.90
42965;DHT22;28604;51.204;22.552;2023-04-03T04:40:14;1.50;93.00
42965;DHT22;28604;51.204;22.552;2023-04-03T04:42:41;1.60;93.00
42965;DHT22;28604;51.204;22.552;2023-04-03T04:45:07;1.60;93.10
42965;DHT22;28604;51.204;22.552;2023-04-03T04:47:33;1.60;93.10
42965;DHT22;28604;51.204;22.552;2023-04-03T04:50:00;1.70;93.00
42965;DHT22;28604;51.204;22.552;2023-04-03T04:52:26;1.60;92.90
42965;DHT22;28604;51.204;22.552;2023-04-03T04:54:53;1.60;93.10
42965;DHT22;28604;51.204;22.552;2023-04-03T04:57:19;1.60;93.00
42965;DHT22;28604;51.204;22.552;2023-04-03T04:59:46;1.60;93.00
42965;DHT22;28604;51.204;22.552;2023-04-03T05:02:12;1.50;92.30
42965;DHT22;28604;51.204;22.552;2023-04-03T05:04:40;1.50;92.90
42965;DHT22;28604;51.204;22.552;2023-04-03T05:07:13;1.50;93.10
42965;DHT22;28604;51.204;22.552;2023-04-03T05:09:39;1.50;92.80
42965;DHT22;28604;51.204;22.552;2023-04-03T05:12:08;1.40;93.00
42965;DHT22;28604;51.204;22.552;2023-04-03T05:14:40;1.40;92.90
42965;DHT22;28604;51.204;22.552;2023-04-03T05:17:08;1.30;92.90
42965;DHT22;28604;51.204;22.552;2023-04-03T05:19:37;1.30;92.80
42965;DHT22;28604;51.204;22.552;2023-04-03T05:22:05;1.30;93.00
42965;DHT22;28604;51.204;22.552;2023-04-03T05:24:32;1.30;93.20
42965;DHT22;28604;51.204;22.552;2023-04-03T05:26:58;1.40;93.00
42965;DHT22;28604;51.204;22.552;2023-04-03T05:29:25;1.50;92.90
42965;DHT22;28604;51.204;22.552;2023-04-03T05:31:51;1.50;92.60
42965;DHT22;28604;51.204;22.552;2023-04-03T05:34:18;1.40;92.70
42965;DHT22;28604;51.204;22.552;2023-04-03T05:36:46;1.40;92.60
42965;DHT22;28604;51.204;22.552;2023-04-03T05:39:14;1.50;92.90
42965;DHT22;28604;51.204;22.552;2023-04-03T05:41:42;1.40;92.60
42965;DHT22;28604;51.204;22.552;2023-04-03T05:44:08;1.40;92.40
42965;DHT22;28604;51.204;22.552;2023-04-03T05:46:34;1.30;92.10
42965;DHT22;28604;51.204;22.552;2023-04-03T05:49:04;1.40;92.50
42965;DHT22;28604;51.204;22.552;2023-04-03T05:51:35;1.40;92.50
42965;DHT22;28604;51.204;22.552;2023-04-03T05:54:12;1.60;92.30
42965;DHT22;28604;51.204;22.552;2023-04-03T05:56:40;1.50;92.20
42965;DHT22;28604;51.204;22.552;2023-04-03T05:59:06;1.40;92.30
42965;DHT22;28604;51.204;22.552;2023-04-03T06:01:33;1.50;91.80
42965;DHT22;28604;51.204;22.552;2023-04-03T06:04:00;1.40;91.90
42965;DHT22;28604;51.204;22.552;2023-04-03T06:06:41;1.40;92.00
42965;DHT22;28604;51.204;22.552;2023-04-03T06:09:09;1.40;91.70
42965;DHT22;28604;51.204;22.552;2023-04-03T06:11:35;1.40;91.70
42965;DHT22;28604;51.204;22.552;2023-04-03T06:14:01;1.40;91.80
42965;DHT22;28604;51.204;22.552;2023-04-03T06:16:28;1.40;91.70
42965;DHT22;28604;51.204;22.552;2023-04-03T06:18:55;1.50;91.80
42965;DHT22;28604;51.204;22.552;2023-04-03T06:21:22;1.70;91.80
42965;DHT22;28604;51.204;22.552;2023-04-03T06:23:48;1.60;91.40
42965;DHT22;28604;51.204;22.552;2023-04-03T06:26:13;1.60;91.60
42965;DHT22;28604;51.204;22.552;2023-04-03T06:28:39;1.70;91.50
42965;DHT22;28604;51.204;22.552;2023-04-03T06:31:05;1.60;91.00
42965;DHT22;28604;51.204;22.552;2023-04-03T06:33:31;1.60;91.20
42965;DHT22;28604;51.204;22.552;2023-04-03T06:35:58;1.80;91.00
42965;DHT22;28604;51.204;22.552;2023-04-03T06:38:24;1.70;90.80
42965;DHT22;28604;51.204;22.552;2023-04-03T06:40:51;1.60;91.10
42965;DHT22;28604;51.204;22.552;2023-04-03T06:43:17;1.70;91.10
42965;DHT22;28604;51.204;22.552;2023-04-03T06:45:43;1.70;90.70
42965;DHT22;28604;51.204;22.552;2023-04-03T06:48:09;1.70;90.80
42965;DHT22;28604;51.204;22.552;2023-04-03T06:50:35;1.70;90.50
42965;DHT22;28604;51.204;22.552;2023-04-03T06:53:01;1.80;91.00
42965;DHT22;28604;51.204;22.552;2023-04-03T06:55:27;1.80;90.70
42965;DHT22;28604;51.204;22.552;2023-04-03T06:57:53;1.80;90.20
42965;DHT22;28604;51.204;22.552;2023-04-03T07:00:19;1.80;90.70
42965;DHT22;28604;51.204;22.552;2023-04-03T07:02:45;1.80;90.10
42965;DHT22;28604;51.204;22.552;2023-04-03T07:05:12;1.90;90.60
42965;DHT22;28604;51.204;22.552;2023-04-03T07:07:39;1.90;90.70
42965;DHT22;28604;51.204;22.552;2023-04-03T07:10:06;1.90;89.80
42965;DHT22;28604;51.204;22.552;2023-04-03T07:12:33;1.80;89.90
42965;DHT22;28604;51.204;22.552;2023-04-03T07:14:59;1.90;90.70
42965;DHT22;28604;51.204;22.552;2023-04-03T07:17:25;1.90;90.10
42965;DHT22;28604;51.204;22.552;2023-04-03T07:19:51;1.80;90.00
42965;DHT22;28604;51.204;22.552;2023-04-03T07:22:17;1.70;89.50
42965;DHT22;28604;51.204;22.552;2023-04-03T07:24:43;1.70;90.00
42965;DHT22;28604;51.204;22.552;2023-04-03T07:27:09;1.70;89.90
42965;DHT22;28604;51.204;22.552;2023-04-03T07:29:38;1.80;90.40
42965;DHT22;28604;51.204;22.552;2023-04-03T07:32:05;1.80;90.30
42965;DHT22;28604;51.204;22.552;2023-04-03T07:34:32;1.90;90.00
42965;DHT22;28604;51.204;22.552;2023-04-03T07:36:59;1.90;90.10
42965;DHT22;28604;51.204;22.552;2023-04-03T07:39:25;1.90;90.00
42965;DHT22;28604;51.204;22.552;2023-04-03T07:41:51;2.00;90.10
42965;DHT22;28604;51.204;22.552;2023-04-03T07:44:18;2.00;90.10
42965;DHT22;28604;51.204;22.552;2023-04-03T07:46:44;2.00;90.10
42965;DHT22;28604;51.204;22.552;2023-04-03T07:49:09;2.00;89.50
42965;DHT22;28604;51.204;22.552;2023-04-03T07:51:35;2.00;89.70
42965;DHT22;28604;51.204;22.552;2023-04-03T07:54:01;2.00;88.80
42965;DHT22;28604;51.204;22.552;2023-04-03T07:56:27;2.00;89.80
42965;DHT22;28604;51.204;22.552;2023-04-03T07:58:53;2.10;90.30
42965;DHT22;28604;51.204;22.552;2023-04-03T08:01:19;2.10;88.60
42965;DHT22;28604;51.204;22.552;2023-04-03T08:03:46;2.00;88.90
42965;DHT22;28604;51.204;22.552;2023-04-03T08:06:12;2.10;90.30
42965;DHT22;28604;51.204;22.552;2023-04-03T08:08:40;2.10;88.40
42965;DHT22;28604;51.204;22.552;2023-04-03T08:11:07;2.00;89.70
42965;DHT22;28604;51.204;22.552;2023-04-03T08:13:34;2.10;88.70
42965;DHT22;28604;51.204;22.552;2023-04-03T08:16:10;2.20;89.90
42965;DHT22;28604;51.204;22.552;2023-04-03T08:18:36;2.10;86.80
42965;DHT22;28604;51.204;22.552;2023-04-03T08:21:05;2.00;87.60
42965;DHT22;28604;51.204;22.552;2023-04-03T08:23:31;2.10;89.30
42965;DHT22;28604;51.204;22.552;2023-04-03T08:25:57;2.10;88.40
42965;DHT22;28604;51.204;22.552;2023-04-03T08:28:23;2.20;89.40
42965;DHT22;28604;51.204;22.552;2023-04-03T08:30:49;2.20;89.20
42965;DHT22;28604;51.204;22.552;2023-04-03T08:33:16;2.20;86.80
42965;DHT22;28604;51.204;22.552;2023-04-03T08:35:42;2.20;87.10
42965;DHT22;28604;51.204;22.552;2023-04-03T08:38:09;2.30;88.10
42965;DHT22;28604;51.204;22.552;2023-04-03T08:40:35;2.30;86.70
42965;DHT22;28604;51.204;22.552;2023-04-03T08:43:30;2.20;86.10
42965;DHT22;28604;51.204;22.552;2023-04-03T08:46:01;2.40;88.10
42965;DHT22;28604;51.204;22.552;2023-04-03T08:48:33;2.40;88.40
42965;DHT22;28604;51.204;22.552;2023-04-03T08:51:03;2.50;88.70
42965;DHT22;28604;51.204;22.552;2023-04-03T08:53:34;2.50;87.80
42965;DHT22;28604;51.204;22.552;2023-04-03T08:56:08;2.50;87.70
42965;DHT22;28604;51.204;22.552;2023-04-03T08:59:04;2.50;85.90
42965;DHT22;28604;51.204;22.552;2023-04-03T09:01:39;2.60;87.90
42965;DHT22;28604;51.204;22.552;2023-04-03T09:04:13;2.60;84.60
42965;DHT22;28604;51.204;22.552;2023-04-03T09:06:39;2.60;84.20
42965;DHT22;28604;51.204;22.552;2023-04-03T09:09:15;2.60;85.40
42965;DHT22;28604;51.204;22.552;2023-04-03T09:17:38;2.90;85.00
42965;DHT22;28604;51.204;22.552;2023-04-03T09:22:33;3.00;82.90
42965;DHT22;28604;51.204;22.552;2023-04-03T09:25:18;3.00;82.40
42965;DHT22;28604;51.204;22.552;2023-04-03T09:27:45;3.10;84.20
42965;DHT22;28604;51.204;22.552;2023-04-03T09:30:16;3.20;83.20
42965;DHT22;28604;51.204;22.552;2023-04-03T09:32:45;3.30;83.90
42965;DHT22;28604;51.204;22.552;2023-04-03T09:35:29;3.40;83.60
42965;DHT22;28604;51.204;22.552;2023-04-03T09:38:16;3.50;83.50
42965;DHT22;28604;51.204;22.552;2023-04-03T09:40:51;3.60;82.70
42965;DHT22;28604;51.204;22.552;2023-04-03T09:43:36;3.70;83.50
42965;DHT22;28604;51.204;22.552;2023-04-03T09:46:29;3.70;84.00
42965;DHT22;28604;51.204;22.552;2023-04-03T09:48:58;3.90;81.60
42965;DHT22;28604;51.204;22.552;2023-04-03T09:51:28;3.90;81.90
42965;DHT22;28604;51.204;22.552;2023-04-03T09:53:55;3.90;81.70
42965;DHT22;28604;51.204;22.552;2023-04-03T09:56:27;4.00;81.30
42965;DHT22;28604;51.204;22.552;2023-04-03T10:01:37;4.10;81.60
42965;DHT22;28604;51.204;22.552;2023-04-03T10:06:46;4.20;81.10
42965;DHT22;28604;51.204;22.552;2023-04-03T10:14:28;4.40;79.10
42965;DHT22;28604;51.204;22.552;2023-04-03T10:17:04;4.40;73.80
42965;DHT22;28604;51.204;22.552;2023-04-03T10:19:53;4.50;77.10
42965;DHT22;28604;51.204;22.552;2023-04-03T10:25:02;4.60;76.70
42965;DHT22;28604;51.204;22.552;2023-04-03T10:27:34;4.60;75.20
42965;DHT22;28604;51.204;22.552;2023-04-03T10:36:02;5.10;79.10
42965;DHT22;28604;51.204;22.552;2023-04-03T10:38:48;5.20;77.60
42965;DHT22;28604;51.204;22.552;2023-04-03T10:41:31;5.30;76.00
42965;DHT22;28604;51.204;22.552;2023-04-03T10:46:58;5.50;75.10
42965;DHT22;28604;51.204;22.552;2023-04-03T10:49:55;5.60;73.60
42965;DHT22;28604;51.204;22.552;2023-04-03T10:52:54;5.70;73.30
42965;DHT22;28604;51.204;22.552;2023-04-03T10:57:59;5.80;72.20
42965;DHT22;28604;51.204;22.552;2023-04-03T11:00:35;5.80;68.80
42965;DHT22;28604;51.204;22.552;2023-04-03T11:03:16;5.80;73.90
42965;DHT22;28604;51.204;22.552;2023-04-03T11:05:52;5.90;73.10
42965;DHT22;28604;51.204;22.552;2023-04-03T11:08:27;5.90;68.40
42965;DHT22;28604;51.204;22.552;2023-04-03T11:10:59;6.00;71.30
42965;DHT22;28604;51.204;22.552;2023-04-03T11:16:24;6.20;71.20
42965;DHT22;28604;51.204;22.552;2023-04-03T11:18:59;6.30;71.70
42965;DHT22;28604;51.204;22.552;2023-04-03T11:21:34;6.40;69.30
42965;DHT22;28604;51.204;22.552;2023-04-03T11:24:05;6.40;71.60
42965;DHT22;28604;51.204;22.552;2023-04-03T11:26:40;6.40;70.10
42965;DHT22;28604;51.204;22.552;2023-04-03T11:29:15;6.50;72.30
42965;DHT22;28604;51.204;22.552;2023-04-03T11:34:35;6.50;68.80
42965;DHT22;28604;51.204;22.552;2023-04-03T11:40:06;6.40;69.30
42965;DHT22;28604;51.204;22.552;2023-04-03T11:42:38;6.20;65.70
42965;DHT22;28604;51.204;22.552;2023-04-03T11:48:41;6.20;66.80
42965;DHT22;28604;51.204;22.552;2023-04-03T11:50:58;6.10;65.60
42965;DHT22;28604;51.204;22.552;2023-04-03T11:53:37;6.10;67.40
42965;DHT22;28604;51.204;22.552;2023-04-03T12:01:49;6.10;65.80
42965;DHT22;28604;51.204;22.552;2023-04-03T12:04:17;6.10;68.10
42965;DHT22;28604;51.204;22.552;2023-04-03T12:11:55;6.20;68.20
42965;DHT22;28604;51.204;22.552;2023-04-03T12:14:25;6.20;68.10
42965;DHT22;28604;51.204;22.552;2023-04-03T12:16:55;6.20;65.30
42965;DHT22;28604;51.204;22.552;2023-04-03T12:19:39;6.20;69.40
42965;DHT22;28604;51.204;22.552;2023-04-03T12:22:14;6.10;64.90
42965;DHT22;28604;51.204;22.552;2023-04-03T12:24:50;6.10;68.20
42965;DHT22;28604;51.204;22.552;2023-04-03T12:27:32;6.10;66.40
42965;DHT22;28604;51.204;22.552;2023-04-03T12:30:05;6.10;68.30
42965;DHT22;28604;51.204;22.552;2023-04-03T12:32:43;6.20;67.70
42965;DHT22;28604;51.204;22.552;2023-04-03T12:43:59;6.10;65.30
42965;DHT22;28604;51.204;22.552;2023-04-03T12:46:19;6.10;66.90
42965;DHT22;28604;51.204;22.552;2023-04-03T12:51:40;6.10;66.40
42965;DHT22;28604;51.204;22.552;2023-04-03T12:54:13;6.10;62.50
42965;DHT22;28604;51.204;22.552;2023-04-03T12:56:40;6.00;63.40
42965;DHT22;28604;51.204;22.552;2023-04-03T12:59:15;6.10;66.80
42965;DHT22;28604;51.204;22.552;2023-04-03T13:01:43;6.20;66.50
42965;DHT22;28604;51.204;22.552;2023-04-03T13:04:11;6.30;64.10
42965;DHT22;28604;51.204;22.552;2023-04-03T13:06:41;6.30;65.10
42965;DHT22;28604;51.204;22.552;2023-04-03T13:09:25;6.30;66.10
42965;DHT22;28604;51.204;22.552;2023-04-03T13:12:14;6.40;67.30
42965;DHT22;28604;51.204;22.552;2023-04-03T13:14:54;6.40;64.00
42965;DHT22;28604;51.204;22.552;2023-04-03T13:17:21;6.40;64.70
42965;DHT22;28604;51.204;22.552;2023-04-03T13:19:47;6.50;68.40
42965;DHT22;28604;51.204;22.552;2023-04-03T13:22:28;6.60;68.20
42965;DHT22;28604;51.204;22.552;2023-04-03T13:24:58;6.60;67.40
42965;DHT22;28604;51.204;22.552;2023-04-03T13:27:25;6.60;67.50
42965;DHT22;28604;51.204;22.552;2023-04-03T13:29:54;6.60;66.00
42965;DHT22;28604;51.204;22.552;2023-04-03T13:32:24;6.60;67.30
42965;DHT22;28604;51.204;22.552;2023-04-03T13:34:52;6.50;63.80
42965;DHT22;28604;51.204;22.552;2023-04-03T13:37:23;6.50;64.80
42965;DHT22;28604;51.204;22.552;2023-04-03T13:40:16;6.50;65.80
42965;DHT22;28604;51.204;22.552;2023-04-03T13:42:42;6.40;65.80
42965;DHT22;28604;51.204;22.552;2023-04-03T13:47:48;6.40;63.70
42965;DHT22;28604;51.204;22.552;2023-04-03T13:50:20;6.40;66.10
42965;DHT22;28604;51.204;22.552;2023-04-03T13:52:59;6.50;66.90
42965;DHT22;28604;51.204;22.552;2023-04-03T13:55:33;6.60;66.60
42965;DHT22;28604;51.204;22.552;2023-04-03T13:58:02;6.60;66.70
42965;DHT22;28604;51.204;22.552;2023-04-03T14:00:52;6.60;66.30
42965;DHT22;28604;51.204;22.552;2023-04-03T14:03:55;6.60;66.40
42965;DHT22;28604;51.204;22.552;2023-04-03T14:06:19;6.60;63.40
42965;DHT22;28604;51.204;22.552;2023-04-03T14:08:45;6.70;64.50
42965;DHT22;28604;51.204;22.552;2023-04-03T14:11:18;6.70;65.10
42965;DHT22;28604;51.204;22.552;2023-04-03T14:13:45;6.70;64.00
42965;DHT22;28604;51.204;22.552;2023-04-03T14:16:16;6.80;64.60
42965;DHT22;28604;51.204;22.552;2023-04-03T14:18:47;6.70;65.30
42965;DHT22;28604;51.204;22.552;2023-04-03T14:21:15;6.80;65.90
42965;DHT22;28604;51.204;22.552;2023-04-03T14:23:41;6.80;65.60
42965;DHT22;28604;51.204;22.552;2023-04-03T14:26:17;6.80;65.40
42965;DHT22;28604;51.204;22.552;2023-04-03T14:28:44;6.90;65.40
42965;DHT22;28604;51.204;22.552;2023-04-03T14:31:12;6.80;62.00
42965;DHT22;28604;51.204;22.552;2023-04-03T14:33:38;6.90;65.00
42965;DHT22;28604;51.204;22.552;2023-04-03T14:36:12;6.80;63.40
42965;DHT22;28604;51.204;22.552;2023-04-03T14:38:38;6.80;63.40
42965;DHT22;28604;51.204;22.552;2023-04-03T14:41:04;6.70;61.20
42965;DHT22;28604;51.204;22.552;2023-04-03T14:43:30;6.60;62.30
42965;DHT22;28604;51.204;22.552;2023-04-03T14:45:56;6.60;61.90
42965;DHT22;28604;51.204;22.552;2023-04-03T14:48:24;6.60;63.60
42965;DHT22;28604;51.204;22.552;2023-04-03T14:50:52;6.60;65.10
42965;DHT22;28604;51.204;22.552;2023-04-03T14:53:19;6.60;64.20
42965;DHT22;28604;51.204;22.552;2023-04-03T14:55:49;6.50;64.90
42965;DHT22;28604;51.204;22.552;2023-04-03T14:58:17;6.50;61.20
42965;DHT22;28604;51.204;22.552;2023-04-03T15:00:44;6.30;59.90
42965;DHT22;28604;51.204;22.552;2023-04-03T15:03:19;6.30;62.90
42965;DHT22;28604;51.204;22.552;2023-04-03T15:05:47;6.30;63.40
42965;DHT22;28604;51.204;22.552;2023-04-03T15:08:21;6.20;62.30
42965;DHT22;28604;51.204;22.552;2023-04-03T15:10:48;6.20;63.00
42965;DHT22;28604;51.204;22.552;2023-04-03T15:13:15;6.00;60.20
42965;DHT22;28604;51.204;22.552;2023-04-03T15:15:42;6.00;60.60
42965;DHT22;28604;51.204;22.552;2023-04-03T15:18:14;5.90;61.00
42965;DHT22;28604;51.204;22.552;2023-04-03T15:20:41;5.90;63.40
42965;DHT22;28604;51.204;22.552;2023-04-03T15:23:10;5.90;63.50
42965;DHT22;28604;51.204;22.552;2023-04-03T15:25:37;5.90;63.20
42965;DHT22;28604;51.204;22.552;2023-04-03T15:28:03;5.80;64.40
42965;DHT22;28604;51.204;22.552;2023-04-03T15:30:29;5.80;64.30
42965;DHT22;28604;51.204;22.552;2023-04-03T15:32:55;5.80;64.30
42965;DHT22;28604;51.204;22.552;2023-04-03T15:35:22;5.70;64.10
42965;DHT22;28604;51.204;22.552;2023-04-03T15:37:48;5.70;65.20
42965;DHT22;28604;51.204;22.552;2023-04-03T15:40:14;5.70;64.50
42965;DHT22;28604;51.204;22.552;2023-04-03T15:42:40;5.70;64.20
42965;DHT22;28604;51.204;22.552;2023-04-03T15:45:07;5.60;64.40
42965;DHT22;28604;51.204;22.552;2023-04-03T15:47:33;5.60;62.50
42965;DHT22;28604;51.204;22.552;2023-04-03T15:49:59;5.50;62.90
42965;DHT22;28604;51.204;22.552;2023-04-03T15:52:25;5.60;64.50
42965;DHT22;28604;51.204;22.552;2023-04-03T15:54:51;5.40;62.30
42965;DHT22;28604;51.204;22.552;2023-04-03T15:57:17;5.40;61.10
42965;DHT22;28604;51.204;22.552;2023-04-03T15:59:43;5.40;63.00
42965;DHT22;28604;51.204;22.552;2023-04-03T16:02:11;5.30;64.40
42965;DHT22;28604;51.204;22.552;2023-04-03T16:04:38;5.40;64.30
42965;DHT22;28604;51.204;22.552;2023-04-03T16:07:04;5.30;64.00
42965;DHT22;28604;51.204;22.552;2023-04-03T16:09:31;5.40;64.30
42965;DHT22;28604;51.204;22.552;2023-04-03T16:11:58;5.40;64.50
42965;DHT22;28604;51.204;22.552;2023-04-03T16:14:24;5.30;63.70
42965;DHT22;28604;51.204;22.552;2023-04-03T16:16:50;5.30;62.70
42965;DHT22;28604;51.204;22.552;2023-04-03T16:19:16;5.20;64.80
42965;DHT22;28604;51.204;22.552;2023-04-03T16:21:42;5.20;63.90
42965;DHT22;28604;51.204;22.552;2023-04-03T16:24:08;5.10;64.80
42965;DHT22;28604;51.204;22.552;2023-04-03T16:26:34;5.10;65.00
42965;DHT22;28604;51.204;22.552;2023-04-03T16:29:00;5.00;64.10
42965;DHT22;28604;51.204;22.552;2023-04-03T16:31:26;5.10;65.20
42965;DHT22;28604;51.204;22.552;2023-04-03T16:33:54;5.00;64.30
42965;DHT22;28604;51.204;22.552;2023-04-03T16:36:20;5.00;64.30
42965;DHT22;28604;51.204;22.552;2023-04-03T16:38:46;4.90;64.50
42965;DHT22;28604;51.204;22.552;2023-04-03T16:41:12;4.90;64.60
42965;DHT22;28604;51.204;22.552;2023-04-03T16:43:38;4.80;64.00
42965;DHT22;28604;51.204;22.552;2023-04-03T16:46:05;4.80;63.80
42965;DHT22;28604;51.204;22.552;2023-04-03T16:48:31;4.80;64.90
42965;DHT22;28604;51.204;22.552;2023-04-03T16:50:57;4.80;65.50
42965;DHT22;28604;51.204;22.552;2023-04-03T16:53:24;4.80;65.50
42965;DHT22;28604;51.204;22.552;2023-04-03T16:55:50;4.80;65.60
42965;DHT22;28604;51.204;22.552;2023-04-03T16:58:17;4.80;66.70
42965;DHT22;28604;51.204;22.552;2023-04-03T17:00:43;4.80;66.30